sensor_id;sensor_type;location;lat;lon;timestamp;P1;durP1;ratioP1;P2;durP2;ratioP2
4831;SDS011;2430;51.322;7.864;2023-04-25T00:00:26;12.80;;;5.20;;
4831;SDS011;2430;51.322;7.864;2023-04-25T00:02:52;14.93;;;5.50;;
4831;SDS011;2430;51.322;7.864;2023-04-25T00:05:21;11.00;;;5.80;;
4831;SDS011;2430;51.322;7.864;2023-04-25T00:07:48;11.00;;;5.97;;
4831;SDS011;2430;51.322;7.864;2023-04-25T00:10:17;13.93;;;5.30;;
4831;SDS011;2430;51.322;7.864;2023-04-25T00:12:44;12.43;;;5.90;;
4831;SDS011;2430;51.322;7.864;2023-04-25T00:15:11;12.93;;;5.33;;
4831;SDS011;2430;51.322;7.864;2023-04-25T00:17:39;18.87;;;5.90;;
4831;SDS011;2430;51.322;7.864;2023-04-25T00:20:06;15.90;;;6.10;;
4831;SDS011;2430;51.322;7.864;2023-04-25T00:22:34;12.90;;;4.70;;
4831;SDS011;2430;51.322;7.864;2023-04-25T00:25:02;10.00;;;4.87;;
4831;SDS011;2430;51.322;7.864;2023-04-25T00:27:29;16.00;;;4.40;;
4831;SDS011;2430;51.322;7.864;2023-04-25T00:29:55;12.20;;;5.33;;
4831;SDS011;2430;51.322;7.864;2023-04-25T00:32:22;10.93;;;5.23;;
4831;SDS011;2430;51.322;7.864;2023-04-25T00:34:51;12.97;;;5.00;;
4831;SDS011;2430;51.322;7.864;2023-04-25T00:37:18;12.37;;;5.50;;
4831;SDS011;2430;51.322;7.864;2023-04-25T00:39:45;13.17;;;5.23;;
4831;SDS011;2430;51.322;7.864;2023-04-25T00:42:12;13.30;;;4.77;;
4831;SDS011;2430;51.322;7.864;2023-04-25T00:44:38;12.60;;;4.80;;
4831;SDS011;2430;51.322;7.864;2023-04-25T00:47:05;10.50;;;5.87;;
4831;SDS011;2430;51.322;7.864;2023-04-25T00:49:32;11.53;;;4.57;;
4831;SDS011;2430;51.322;7.864;2023-04-25T00:52:00;13.83;;;5.30;;
4831;SDS011;2430;51.322;7.864;2023-04-25T00:54:27;8.67;;;4.80;;
4831;SDS011;2430;51.322;7.864;2023-04-25T00:56:53;15.90;;;4.80;;
4831;SDS011;2430;51.322;7.864;2023-04-25T00:59:20;9.13;;;4.70;;
4831;SDS011;2430;51.322;7.864;2023-04-25T01:01:46;14.57;;;5.40;;
4831;SDS011;2430;51.322;7.864;2023-04-25T01:04:13;10.57;;;5.23;;
4831;SDS011;2430;51.322;7.864;2023-04-25T01:06:39;12.63;;;4.83;;
4831;SDS011;2430;51.322;7.864;2023-04-25T01:09:07;13.73;;;4.67;;
4831;SDS011;2430;51.322;7.864;2023-04-25T01:11:34;8.10;;;4.10;;
4831;SDS011;2430;51.322;7.864;2023-04-25T01:14:00;14.27;;;5.10;;
4831;SDS011;2430;51.322;7.864;2023-04-25T01:16:27;11.40;;;5.10;;
4831;SDS011;2430;51.322;7.864;2023-04-25T01:18:54;11.00;;;4.90;;
4831;SDS011;2430;51.322;7.864;2023-04-25T01:21:21;9.63;;;4.10;;
4831;SDS011;2430;51.322;7.864;2023-04-25T01:23:48;10.57;;;5.30;;
4831;SDS011;2430;51.322;7.864;2023-04-25T01:26:15;7.57;;;4.33;;
4831;SDS011;2430;51.322;7.864;2023-04-25T01:28:41;8.50;;;4.90;;
4831;SDS011;2430;51.322;7.864;2023-04-25T01:31:08;11.43;;;5.40;;
4831;SDS011;2430;51.322;7.864;2023-04-25T01:33:34;13.23;;;4.70;;
4831;SDS011;2430;51.322;7.864;2023-04-25T01:36:01;7.17;;;5.03;;
4831;SDS011;2430;51.322;7.864;2023-04-25T01:38:29;7.93;;;5.13;;
4831;SDS011;2430;51.322;7.864;2023-04-25T01:40:55;9.37;;;4.90;;
4831;SDS011;2430;51.322;7.864;2023-04-25T01:43:22;6.77;;;4.70;;
4831;SDS011;2430;51.322;7.864;2023-04-25T01:45:49;7.77;;;5.50;;
4831;SDS011;2430;51.322;7.864;2023-04-25T01:48:15;9.73;;;5.30;;
4831;SDS011;2430;51.322;7.864;2023-04-25T01:50:42;15.40;;;6.37;;
4831;SDS011;2430;51.322;7.864;2023-04-25T01:53:09;11.23;;;6.43;;
4831;SDS011;2430;51.322;7.864;2023-04-25T01:55:37;8.30;;;5.93;;
4831;SDS011;2430;51.322;7.864;2023-04-25T01:58:03;10.07;;;6.40;;
4831;SDS011;2430;51.322;7.864;2023-04-25T02:00:34;12.50;;;5.83;;
4831;SDS011;2430;51.322;7.864;2023-04-25T02:03:00;8.87;;;5.73;;
4831;SDS011;2430;51.322;7.864;2023-04-25T02:05:27;8.53;;;6.07;;
4831;SDS011;2430;51.322;7.864;2023-04-25T02:07:54;11.60;;;6.93;;
4831;SDS011;2430;51.322;7.864;2023-04-25T02:10:20;12.00;;;7.37;;
4831;SDS011;2430;51.322;7.864;2023-04-25T02:12:48;12.30;;;6.37;;
4831;SDS011;2430;51.322;7.864;2023-04-25T02:15:14;11.67;;;6.57;;
4831;SDS011;2430;51.322;7.864;2023-04-25T02:17:41;8.67;;;5.90;;
4831;SDS011;2430;51.322;7.864;2023-04-25T02:20:07;11.43;;;6.80;;
4831;SDS011;2430;51.322;7.864;2023-04-25T02:22:35;14.33;;;7.40;;
4831;SDS011;2430;51.322;7.864;2023-04-25T02:25:01;10.80;;;7.20;;
4831;SDS011;2430;51.322;7.864;2023-04-25T02:27:29;11.30;;;7.30;;
4831;SDS011;2430;51.322;7.864;2023-04-25T02:29:57;10.40;;;6.90;;
4831;SDS011;2430;51.322;7.864;2023-04-25T02:32:23;11.50;;;7.10;;
4831;SDS011;2430;51.322;7.864;2023-04-25T02:34:50;10.27;;;7.20;;
4831;SDS011;2430;51.322;7.864;2023-04-25T02:37:16;9.57;;;6.20;;
4831;SDS011;2430;51.322;7.864;2023-04-25T02:39:42;11.57;;;6.63;;
4831;SDS011;2430;51.322;7.864;2023-04-25T02:42:09;10.23;;;6.87;;
4831;SDS011;2430;51.322;7.864;2023-04-25T02:44:35;7.67;;;6.00;;
4831;SDS011;2430;51.322;7.864;2023-04-25T02:47:03;8.70;;;5.80;;
4831;SDS011;2430;51.322;7.864;2023-04-25T02:49:29;7.37;;;5.23;;
4831;SDS011;2430;51.322;7.864;2023-04-25T02:51:56;9.43;;;5.80;;
4831;SDS011;2430;51.322;7.864;2023-04-25T02:54:22;7.80;;;5.10;;
4831;SDS011;2430;51.322;7.864;2023-04-25T02:56:49;6.23;;;4.30;;
4831;SDS011;2430;51.322;7.864;2023-04-25T02:59:15;8.60;;;5.77;;
4831;SDS011;2430;51.322;7.864;2023-04-25T03:01:41;9.70;;;6.07;;
4831;SDS011;2430;51.322;7.864;2023-04-25T03:04:09;8.93;;;6.47;;
4831;SDS011;2430;51.322;7.864;2023-04-25T03:06:36;11.07;;;7.17;;
4831;SDS011;2430;51.322;7.864;2023-04-25T03:09:02;9.87;;;7.07;;
4831;SDS011;2430;51.322;7.864;2023-04-25T03:11:29;9.10;;;7.10;;
4831;SDS011;2430;51.322;7.864;2023-04-25T03:13:55;11.30;;;7.37;;
4831;SDS011;2430;51.322;7.864;2023-04-25T03:16:22;13.07;;;7.17;;
4831;SDS011;2430;51.322;7.864;2023-04-25T03:18:48;11.70;;;7.43;;
4831;SDS011;2430;51.322;7.864;2023-04-25T03:21:17;15.57;;;9.43;;
4831;SDS011;2430;51.322;7.864;2023-04-25T03:23:43;12.80;;;7.10;;
4831;SDS011;2430;51.322;7.864;2023-04-25T03:26:10;10.33;;;6.57;;
4831;SDS011;2430;51.322;7.864;2023-04-25T03:28:36;11.53;;;6.73;;
4831;SDS011;2430;51.322;7.864;2023-04-25T03:31:02;9.33;;;5.70;;
4831;SDS011;2430;51.322;7.864;2023-04-25T03:33:29;7.50;;;5.87;;
4831;SDS011;2430;51.322;7.864;2023-04-25T03:35:55;7.13;;;5.30;;
4831;SDS011;2430;51.322;7.864;2023-04-25T03:38:23;9.17;;;5.67;;
4831;SDS011;2430;51.322;7.864;2023-04-25T03:40:49;6.40;;;5.47;;
4831;SDS011;2430;51.322;7.864;2023-04-25T03:43:16;9.93;;;5.30;;
4831;SDS011;2430;51.322;7.864;2023-04-25T03:45:42;8.50;;;5.50;;
4831;SDS011;2430;51.322;7.864;2023-04-25T03:48:09;8.10;;;5.60;;
4831;SDS011;2430;51.322;7.864;2023-04-25T03:50:35;6.37;;;4.83;;
4831;SDS011;2430;51.322;7.864;2023-04-25T03:53:02;7.47;;;5.33;;
4831;SDS011;2430;51.322;7.864;2023-04-25T03:55:29;5.47;;;4.60;;
4831;SDS011;2430;51.322;7.864;2023-04-25T03:57:57;5.40;;;4.67;;
4831;SDS011;2430;51.322;7.864;2023-04-25T04:00:24;5.43;;;4.20;;
4831;SDS011;2430;51.322;7.864;2023-04-25T04:02:50;7.53;;;4.40;;
4831;SDS011;2430;51.322;7.864;2023-04-25T04:05:16;5.70;;;3.80;;
4831;SDS011;2430;51.322;7.864;2023-04-25T04:07:43;5.40;;;4.20;;
4831;SDS011;2430;51.322;7.864;2023-04-25T04:10:09;4.77;;;3.50;;
4831;SDS011;2430;51.322;7.864;2023-04-25T04:12:38;3.50;;;3.17;;
4831;SDS011;2430;51.322;7.864;2023-04-25T04:15:04;6.50;;;4.17;;
4831;SDS011;2430;51.322;7.864;2023-04-25T04:17:31;5.20;;;3.93;;
4831;SDS011;2430;51.322;7.864;2023-04-25T04:19:58;8.13;;;4.53;;
4831;SDS011;2430;51.322;7.864;2023-04-25T04:22:25;7.00;;;4.80;;
4831;SDS011;2430;51.322;7.864;2023-04-25T04:24:51;9.10;;;5.00;;
4831;SDS011;2430;51.322;7.864;2023-04-25T04:27:19;12.97;;;6.00;;
4831;SDS011;2430;51.322;7.864;2023-04-25T04:29:47;8.10;;;5.17;;
4831;SDS011;2430;51.322;7.864;2023-04-25T04:32:15;8.93;;;5.10;;
4831;SDS011;2430;51.322;7.864;2023-04-25T04:34:42;10.20;;;5.30;;
4831;SDS011;2430;51.322;7.864;2023-04-25T04:37:09;14.63;;;5.00;;
4831;SDS011;2430;51.322;7.864;2023-04-25T04:39:38;11.13;;;6.20;;
4831;SDS011;2430;51.322;7.864;2023-04-25T04:42:04;12.67;;;5.50;;
4831;SDS011;2430;51.322;7.864;2023-04-25T04:44:31;9.83;;;5.80;;
4831;SDS011;2430;51.322;7.864;2023-04-25T04:47:00;11.90;;;6.60;;
4831;SDS011;2430;51.322;7.864;2023-04-25T04:49:28;13.03;;;5.93;;
4831;SDS011;2430;51.322;7.864;2023-04-25T04:51:55;12.60;;;5.43;;
4831;SDS011;2430;51.322;7.864;2023-04-25T04:54:21;11.20;;;6.33;;
4831;SDS011;2430;51.322;7.864;2023-04-25T04:56:47;15.07;;;7.37;;
4831;SDS011;2430;51.322;7.864;2023-04-25T04:59:15;11.83;;;5.73;;
4831;SDS011;2430;51.322;7.864;2023-04-25T05:01:41;14.00;;;6.83;;
4831;SDS011;2430;51.322;7.864;2023-04-25T05:04:09;14.57;;;5.90;;
4831;SDS011;2430;51.322;7.864;2023-04-25T05:06:35;14.70;;;6.93;;
4831;SDS011;2430;51.322;7.864;2023-04-25T05:09:02;23.03;;;6.83;;
4831;SDS011;2430;51.322;7.864;2023-04-25T05:11:29;19.73;;;6.67;;
4831;SDS011;2430;51.322;7.864;2023-04-25T05:13:56;15.07;;;6.60;;
4831;SDS011;2430;51.322;7.864;2023-04-25T05:16:22;13.23;;;6.60;;
4831;SDS011;2430;51.322;7.864;2023-04-25T05:18:48;18.63;;;6.40;;
4831;SDS011;2430;51.322;7.864;2023-04-25T05:21:16;11.10;;;6.30;;
4831;SDS011;2430;51.322;7.864;2023-04-25T05:23:42;12.53;;;6.07;;
4831;SDS011;2430;51.322;7.864;2023-04-25T05:26:09;15.90;;;6.53;;
4831;SDS011;2430;51.322;7.864;2023-04-25T05:28:38;13.27;;;5.07;;
4831;SDS011;2430;51.322;7.864;2023-04-25T05:31:05;9.00;;;4.40;;
4831;SDS011;2430;51.322;7.864;2023-04-25T05:33:32;8.30;;;3.77;;
4831;SDS011;2430;51.322;7.864;2023-04-25T05:35:58;8.13;;;3.37;;
4831;SDS011;2430;51.322;7.864;2023-04-25T05:38:26;6.37;;;3.10;;
4831;SDS011;2430;51.322;7.864;2023-04-25T05:40:53;6.20;;;2.97;;
4831;SDS011;2430;51.322;7.864;2023-04-25T05:43:19;2.93;;;2.47;;
4831;SDS011;2430;51.322;7.864;2023-04-25T05:45:46;8.97;;;3.53;;
4831;SDS011;2430;51.322;7.864;2023-04-25T05:48:12;6.90;;;3.10;;
4831;SDS011;2430;51.322;7.864;2023-04-25T05:50:39;5.73;;;2.67;;
4831;SDS011;2430;51.322;7.864;2023-04-25T05:53:05;12.40;;;3.17;;
4831;SDS011;2430;51.322;7.864;2023-04-25T05:55:33;6.70;;;3.00;;
4831;SDS011;2430;51.322;7.864;2023-04-25T05:58:00;6.10;;;2.80;;
4831;SDS011;2430;51.322;7.864;2023-04-25T06:00:27;5.90;;;2.60;;
4831;SDS011;2430;51.322;7.864;2023-04-25T06:02:54;12.00;;;2.73;;
4831;SDS011;2430;51.322;7.864;2023-04-25T06:05:21;9.97;;;3.23;;
4831;SDS011;2430;51.322;7.864;2023-04-25T06:07:47;7.20;;;2.77;;
4831;SDS011;2430;51.322;7.864;2023-04-25T06:10:13;5.17;;;2.80;;
4831;SDS011;2430;51.322;7.864;2023-04-25T06:12:41;7.07;;;3.07;;
4831;SDS011;2430;51.322;7.864;2023-04-25T06:15:08;12.77;;;3.23;;
4831;SDS011;2430;51.322;7.864;2023-04-25T06:17:35;10.37;;;3.67;;
4831;SDS011;2430;51.322;7.864;2023-04-25T06:20:01;10.87;;;3.10;;
4831;SDS011;2430;51.322;7.864;2023-04-25T06:22:29;10.43;;;2.63;;
4831;SDS011;2430;51.322;7.864;2023-04-25T06:24:55;12.47;;;3.13;;
4831;SDS011;2430;51.322;7.864;2023-04-25T06:27:23;11.13;;;3.10;;
4831;SDS011;2430;51.322;7.864;2023-04-25T06:29:51;11.67;;;3.30;;
4831;SDS011;2430;51.322;7.864;2023-04-25T06:32:18;8.50;;;3.40;;
4831;SDS011;2430;51.322;7.864;2023-04-25T06:34:44;8.57;;;3.93;;
4831;SDS011;2430;51.322;7.864;2023-04-25T06:37:11;13.23;;;3.30;;
4831;SDS011;2430;51.322;7.864;2023-04-25T06:39:37;12.03;;;3.50;;
4831;SDS011;2430;51.322;7.864;2023-04-25T06:42:04;14.00;;;3.67;;
4831;SDS011;2430;51.322;7.864;2023-04-25T06:44:30;20.33;;;3.80;;
4831;SDS011;2430;51.322;7.864;2023-04-25T06:46:58;8.50;;;2.90;;
4831;SDS011;2430;51.322;7.864;2023-04-25T06:49:24;7.03;;;3.30;;
4831;SDS011;2430;51.322;7.864;2023-04-25T06:51:50;7.13;;;3.50;;
4831;SDS011;2430;51.322;7.864;2023-04-25T06:54:17;9.33;;;4.23;;
4831;SDS011;2430;51.322;7.864;2023-04-25T06:56:43;5.73;;;3.17;;
4831;SDS011;2430;51.322;7.864;2023-04-25T06:59:10;12.97;;;3.70;;
4831;SDS011;2430;51.322;7.864;2023-04-25T07:01:36;7.07;;;3.70;;
4831;SDS011;2430;51.322;7.864;2023-04-25T07:04:04;9.70;;;3.80;;
4831;SDS011;2430;51.322;7.864;2023-04-25T07:06:31;9.93;;;3.83;;
4831;SDS011;2430;51.322;7.864;2023-04-25T07:08:57;10.60;;;3.30;;
4831;SDS011;2430;51.322;7.864;2023-04-25T07:11:23;12.30;;;3.40;;
4831;SDS011;2430;51.322;7.864;2023-04-25T07:13:50;20.07;;;4.67;;
4831;SDS011;2430;51.322;7.864;2023-04-25T07:16:17;11.43;;;3.77;;
4831;SDS011;2430;51.322;7.864;2023-04-25T07:18:43;6.00;;;3.00;;
4831;SDS011;2430;51.322;7.864;2023-04-25T07:21:11;7.83;;;3.87;;
4831;SDS011;2430;51.322;7.864;2023-04-25T07:23:37;6.70;;;3.10;;
4831;SDS011;2430;51.322;7.864;2023-04-25T07:26:05;6.80;;;3.23;;
4831;SDS011;2430;51.322;7.864;2023-04-25T07:28:32;17.10;;;3.67;;
4831;SDS011;2430;51.322;7.864;2023-04-25T07:30:58;11.00;;;3.57;;
4831;SDS011;2430;51.322;7.864;2023-04-25T07:33:24;13.87;;;3.77;;
4831;SDS011;2430;51.322;7.864;2023-04-25T07:35:51;7.50;;;3.50;;
4831;SDS011;2430;51.322;7.864;2023-04-25T07:38:19;12.93;;;4.30;;
4831;SDS011;2430;51.322;7.864;2023-04-25T07:40:46;7.40;;;3.60;;
4831;SDS011;2430;51.322;7.864;2023-04-25T07:43:13;11.50;;;3.90;;
4831;SDS011;2430;51.322;7.864;2023-04-25T07:45:41;9.27;;;4.00;;
4831;SDS011;2430;51.322;7.864;2023-04-25T07:48:08;11.30;;;3.97;;
4831;SDS011;2430;51.322;7.864;2023-04-25T07:50:34;10.53;;;3.37;;
4831;SDS011;2430;51.322;7.864;2023-04-25T07:53:01;12.93;;;4.57;;
4831;SDS011;2430;51.322;7.864;2023-04-25T07:55:29;8.47;;;4.47;;
4831;SDS011;2430;51.322;7.864;2023-04-25T07:57:55;8.20;;;3.23;;
4831;SDS011;2430;51.322;7.864;2023-04-25T08:00:21;9.33;;;3.40;;
4831;SDS011;2430;51.322;7.864;2023-04-25T08:02:48;9.37;;;3.60;;
4831;SDS011;2430;51.322;7.864;2023-04-25T08:05:16;8.37;;;2.93;;
4831;SDS011;2430;51.322;7.864;2023-04-25T08:07:42;10.70;;;4.40;;
4831;SDS011;2430;51.322;7.864;2023-04-25T08:10:09;9.93;;;3.60;;
4831;SDS011;2430;51.322;7.864;2023-04-25T08:12:36;15.13;;;3.77;;
4831;SDS011;2430;51.322;7.864;2023-04-25T08:15:03;16.73;;;4.60;;
4831;SDS011;2430;51.322;7.864;2023-04-25T08:17:30;17.50;;;3.50;;
4831;SDS011;2430;51.322;7.864;2023-04-25T08:19:57;12.60;;;4.23;;
4831;SDS011;2430;51.322;7.864;2023-04-25T08:22:23;6.97;;;3.13;;
4831;SDS011;2430;51.322;7.864;2023-04-25T08:24:50;13.57;;;4.70;;
4831;SDS011;2430;51.322;7.864;2023-04-25T08:27:16;7.30;;;3.30;;
4831;SDS011;2430;51.322;7.864;2023-04-25T08:29:44;6.70;;;2.93;;
4831;SDS011;2430;51.322;7.864;2023-04-25T08:32:11;8.93;;;2.70;;
4831;SDS011;2430;51.322;7.864;2023-04-25T08:34:37;10.17;;;3.07;;
4831;SDS011;2430;51.322;7.864;2023-04-25T08:37:07;6.33;;;2.47;;
4831;SDS011;2430;51.322;7.864;2023-04-25T08:39:34;10.33;;;3.43;;
4831;SDS011;2430;51.322;7.864;2023-04-25T08:42:02;7.87;;;3.20;;
4831;SDS011;2430;51.322;7.864;2023-04-25T08:44:32;11.40;;;2.97;;
4831;SDS011;2430;51.322;7.864;2023-04-25T08:47:01;6.53;;;2.87;;
4831;SDS011;2430;51.322;7.864;2023-04-25T08:49:27;12.83;;;3.43;;
4831;SDS011;2430;51.322;7.864;2023-04-25T08:51:54;11.20;;;2.77;;
4831;SDS011;2430;51.322;7.864;2023-04-25T08:54:25;14.20;;;3.73;;
4831;SDS011;2430;51.322;7.864;2023-04-25T08:56:53;12.27;;;3.07;;
4831;SDS011;2430;51.322;7.864;2023-04-25T08:59:20;10.80;;;2.90;;
4831;SDS011;2430;51.322;7.864;2023-04-25T09:01:47;20.70;;;4.37;;
4831;SDS011;2430;51.322;7.864;2023-04-25T09:04:15;13.37;;;3.50;;
4831;SDS011;2430;51.322;7.864;2023-04-25T09:06:42;6.73;;;3.20;;
4831;SDS011;2430;51.322;7.864;2023-04-25T09:09:09;8.87;;;3.37;;
4831;SDS011;2430;51.322;7.864;2023-04-25T09:11:36;13.70;;;3.10;;
4831;SDS011;2430;51.322;7.864;2023-04-25T09:14:15;5.23;;;2.40;;
4831;SDS011;2430;51.322;7.864;2023-04-25T09:16:56;8.50;;;3.03;;
4831;SDS011;2430;51.322;7.864;2023-04-25T09:19:26;7.00;;;3.33;;
4831;SDS011;2430;51.322;7.864;2023-04-25T09:21:53;11.70;;;3.70;;
4831;SDS011;2430;51.322;7.864;2023-04-25T09:24:23;8.20;;;3.77;;
4831;SDS011;2430;51.322;7.864;2023-04-25T09:26:55;6.37;;;3.40;;
4831;SDS011;2430;51.322;7.864;2023-04-25T09:29:24;9.83;;;4.33;;
4831;SDS011;2430;51.322;7.864;2023-04-25T09:31:57;6.20;;;3.07;;
4831;SDS011;2430;51.322;7.864;2023-04-25T09:34:39;9.63;;;3.50;;
4831;SDS011;2430;51.322;7.864;2023-04-25T09:37:07;8.37;;;3.27;;
4831;SDS011;2430;51.322;7.864;2023-04-25T09:39:33;13.53;;;3.13;;
4831;SDS011;2430;51.322;7.864;2023-04-25T09:42:00;6.77;;;2.63;;
4831;SDS011;2430;51.322;7.864;2023-04-25T09:44:26;9.30;;;2.50;;
4831;SDS011;2430;51.322;7.864;2023-04-25T09:46:53;5.73;;;2.37;;
4831;SDS011;2430;51.322;7.864;2023-04-25T09:49:20;9.83;;;2.70;;
4831;SDS011;2430;51.322;7.864;2023-04-25T09:51:55;11.60;;;3.47;;
4831;SDS011;2430;51.322;7.864;2023-04-25T09:54:22;9.37;;;2.90;;
4831;SDS011;2430;51.322;7.864;2023-04-25T09:56:49;8.93;;;2.27;;
4831;SDS011;2430;51.322;7.864;2023-04-25T09:59:17;12.60;;;2.77;;
4831;SDS011;2430;51.322;7.864;2023-04-25T10:01:45;6.27;;;2.00;;
4831;SDS011;2430;51.322;7.864;2023-04-25T10:04:11;8.70;;;2.50;;
4831;SDS011;2430;51.322;7.864;2023-04-25T10:06:38;6.97;;;2.43;;
4831;SDS011;2430;51.322;7.864;2023-04-25T10:09:09;7.70;;;2.27;;
4831;SDS011;2430;51.322;7.864;2023-04-25T10:11:36;7.33;;;2.57;;
4831;SDS011;2430;51.322;7.864;2023-04-25T10:14:03;3.47;;;2.00;;
4831;SDS011;2430;51.322;7.864;2023-04-25T10:16:30;4.87;;;2.07;;
4831;SDS011;2430;51.322;7.864;2023-04-25T10:18:57;14.80;;;3.10;;
4831;SDS011;2430;51.322;7.864;2023-04-25T10:21:23;5.47;;;2.33;;
4831;SDS011;2430;51.322;7.864;2023-04-25T10:23:51;7.33;;;2.40;;
4831;SDS011;2430;51.322;7.864;2023-04-25T10:26:19;5.70;;;2.57;;
4831;SDS011;2430;51.322;7.864;2023-04-25T10:28:57;7.23;;;1.97;;
4831;SDS011;2430;51.322;7.864;2023-04-25T10:31:23;5.97;;;2.17;;
4831;SDS011;2430;51.322;7.864;2023-04-25T10:33:50;6.93;;;2.67;;
4831;SDS011;2430;51.322;7.864;2023-04-25T10:36:18;9.73;;;2.60;;
4831;SDS011;2430;51.322;7.864;2023-04-25T10:38:46;5.97;;;2.37;;
4831;SDS011;2430;51.322;7.864;2023-04-25T10:41:13;6.10;;;2.40;;
4831;SDS011;2430;51.322;7.864;2023-04-25T10:43:41;7.83;;;2.30;;
4831;SDS011;2430;51.322;7.864;2023-04-25T10:46:14;5.10;;;2.20;;
4831;SDS011;2430;51.322;7.864;2023-04-25T10:48:47;4.57;;;2.07;;
4831;SDS011;2430;51.322;7.864;2023-04-25T10:51:18;7.57;;;2.30;;
4831;SDS011;2430;51.322;7.864;2023-04-25T10:53:56;7.23;;;1.70;;
4831;SDS011;2430;51.322;7.864;2023-04-25T10:56:25;5.40;;;2.60;;
4831;SDS011;2430;51.322;7.864;2023-04-25T10:58:53;4.47;;;2.00;;
4831;SDS011;2430;51.322;7.864;2023-04-25T11:01:28;4.77;;;2.10;;
4831;SDS011;2430;51.322;7.864;2023-04-25T11:04:01;7.27;;;2.60;;
4831;SDS011;2430;51.322;7.864;2023-04-25T11:06:29;6.70;;;2.83;;
4831;SDS011;2430;51.322;7.864;2023-04-25T11:08:57;7.17;;;2.30;;
4831;SDS011;2430;51.322;7.864;2023-04-25T11:11:26;3.37;;;2.03;;
4831;SDS011;2430;51.322;7.864;2023-04-25T11:13:54;8.83;;;1.90;;
4831;SDS011;2430;51.322;7.864;2023-04-25T11:16:20;4.93;;;1.97;;
4831;SDS011;2430;51.322;7.864;2023-04-25T11:18:50;5.47;;;2.13;;
4831;SDS011;2430;51.322;7.864;2023-04-25T11:21:16;5.83;;;1.77;;
4831;SDS011;2430;51.322;7.864;2023-04-25T11:23:44;4.07;;;2.10;;
4831;SDS011;2430;51.322;7.864;2023-04-25T11:26:12;4.60;;;2.10;;
4831;SDS011;2430;51.322;7.864;2023-04-25T11:28:38;6.37;;;1.90;;
4831;SDS011;2430;51.322;7.864;2023-04-25T11:31:06;7.37;;;1.93;;
4831;SDS011;2430;51.322;7.864;2023-04-25T11:33:34;4.87;;;1.67;;
4831;SDS011;2430;51.322;7.864;2023-04-25T11:36:02;6.63;;;1.83;;
4831;SDS011;2430;51.322;7.864;2023-04-25T11:38:28;3.80;;;1.73;;
4831;SDS011;2430;51.322;7.864;2023-04-25T11:40:55;3.73;;;1.30;;
4831;SDS011;2430;51.322;7.864;2023-04-25T11:43:21;2.40;;;1.50;;
4831;SDS011;2430;51.322;7.864;2023-04-25T11:45:48;8.33;;;2.03;;
4831;SDS011;2430;51.322;7.864;2023-04-25T11:48:17;1.57;;;1.30;;
4831;SDS011;2430;51.322;7.864;2023-04-25T11:50:44;5.00;;;1.63;;
4831;SDS011;2430;51.322;7.864;2023-04-25T11:53:10;6.90;;;1.47;;
4831;SDS011;2430;51.322;7.864;2023-04-25T11:55:37;2.93;;;1.40;;
4831;SDS011;2430;51.322;7.864;2023-04-25T11:58:04;4.63;;;1.50;;
4831;SDS011;2430;51.322;7.864;2023-04-25T12:00:31;4.03;;;1.70;;
4831;SDS011;2430;51.322;7.864;2023-04-25T12:02:57;4.27;;;1.70;;
4831;SDS011;2430;51.322;7.864;2023-04-25T12:05:26;2.17;;;1.53;;
4831;SDS011;2430;51.322;7.864;2023-04-25T12:07:53;6.93;;;1.73;;
4831;SDS011;2430;51.322;7.864;2023-04-25T12:10:19;3.63;;;1.70;;
4831;SDS011;2430;51.322;7.864;2023-04-25T12:12:47;2.80;;;1.63;;
4831;SDS011;2430;51.322;7.864;2023-04-25T12:15:14;4.40;;;1.67;;
4831;SDS011;2430;51.322;7.864;2023-04-25T12:17:44;3.90;;;1.60;;
4831;SDS011;2430;51.322;7.864;2023-04-25T12:20:12;5.00;;;2.20;;
4831;SDS011;2430;51.322;7.864;2023-04-25T12:22:41;4.40;;;2.03;;
4831;SDS011;2430;51.322;7.864;2023-04-25T12:25:10;7.60;;;2.00;;
4831;SDS011;2430;51.322;7.864;2023-04-25T12:27:37;6.00;;;1.57;;
4831;SDS011;2430;51.322;7.864;2023-04-25T12:30:05;4.20;;;1.70;;
4831;SDS011;2430;51.322;7.864;2023-04-25T12:32:32;7.70;;;2.00;;
4831;SDS011;2430;51.322;7.864;2023-04-25T12:34:58;3.97;;;1.60;;
4831;SDS011;2430;51.322;7.864;2023-04-25T12:37:25;8.70;;;1.90;;
4831;SDS011;2430;51.322;7.864;2023-04-25T12:39:52;4.30;;;1.90;;
4831;SDS011;2430;51.322;7.864;2023-04-25T12:42:19;5.50;;;1.40;;
4831;SDS011;2430;51.322;7.864;2023-04-25T12:44:45;6.43;;;1.90;;
4831;SDS011;2430;51.322;7.864;2023-04-25T12:47:12;3.30;;;1.43;;
4831;SDS011;2430;51.322;7.864;2023-04-25T12:49:38;3.60;;;1.40;;
4831;SDS011;2430;51.322;7.864;2023-04-25T12:52:05;2.07;;;1.40;;
4831;SDS011;2430;51.322;7.864;2023-04-25T12:54:32;2.63;;;1.43;;
4831;SDS011;2430;51.322;7.864;2023-04-25T12:56:59;2.33;;;1.30;;
4831;SDS011;2430;51.322;7.864;2023-04-25T12:59:27;1.90;;;1.30;;
4831;SDS011;2430;51.322;7.864;2023-04-25T13:01:54;3.43;;;1.60;;
4831;SDS011;2430;51.322;7.864;2023-04-25T13:04:20;3.20;;;2.00;;
4831;SDS011;2430;51.322;7.864;2023-04-25T13:06:47;1.47;;;1.00;;
4831;SDS011;2430;51.322;7.864;2023-04-25T13:09:13;2.80;;;1.20;;
4831;SDS011;2430;51.322;7.864;2023-04-25T13:11:40;2.37;;;1.40;;
4831;SDS011;2430;51.322;7.864;2023-04-25T13:14:08;4.00;;;1.50;;
4831;SDS011;2430;51.322;7.864;2023-04-25T13:16:34;4.03;;;1.17;;
4831;SDS011;2430;51.322;7.864;2023-04-25T13:19:01;2.20;;;1.30;;
4831;SDS011;2430;51.322;7.864;2023-04-25T13:21:29;6.40;;;1.60;;
4831;SDS011;2430;51.322;7.864;2023-04-25T13:23:55;1.80;;;1.23;;
4831;SDS011;2430;51.322;7.864;2023-04-25T13:26:22;3.10;;;1.50;;
4831;SDS011;2430;51.322;7.864;2023-04-25T13:28:49;2.60;;;1.10;;
4831;SDS011;2430;51.322;7.864;2023-04-25T13:31:16;2.20;;;1.10;;
4831;SDS011;2430;51.322;7.864;2023-04-25T13:33:43;3.30;;;1.10;;
4831;SDS011;2430;51.322;7.864;2023-04-25T13:36:09;1.37;;;1.00;;
4831;SDS011;2430;51.322;7.864;2023-04-25T13:38:36;1.70;;;1.10;;
4831;SDS011;2430;51.322;7.864;2023-04-25T13:41:03;2.67;;;1.23;;
4831;SDS011;2430;51.322;7.864;2023-04-25T13:43:32;3.77;;;1.27;;
4831;SDS011;2430;51.322;7.864;2023-04-25T13:45:59;1.90;;;1.20;;
4831;SDS011;2430;51.322;7.864;2023-04-25T13:48:27;1.87;;;1.10;;
4831;SDS011;2430;51.322;7.864;2023-04-25T13:50:53;1.97;;;1.37;;
4831;SDS011;2430;51.322;7.864;2023-04-25T13:53:20;2.90;;;1.50;;
4831;SDS011;2430;51.322;7.864;2023-04-25T13:55:46;3.33;;;1.23;;
4831;SDS011;2430;51.322;7.864;2023-04-25T13:58:13;3.10;;;1.50;;
4831;SDS011;2430;51.322;7.864;2023-04-25T14:00:39;8.83;;;4.23;;
4831;SDS011;2430;51.322;7.864;2023-04-25T14:03:08;2.37;;;1.20;;
4831;SDS011;2430;51.322;7.864;2023-04-25T14:05:36;1.37;;;1.00;;
4831;SDS011;2430;51.322;7.864;2023-04-25T14:08:07;3.03;;;1.33;;
4831;SDS011;2430;51.322;7.864;2023-04-25T14:10:33;2.80;;;1.23;;
4831;SDS011;2430;51.322;7.864;2023-04-25T14:13:00;2.43;;;1.17;;
4831;SDS011;2430;51.322;7.864;2023-04-25T14:15:28;3.53;;;2.00;;
4831;SDS011;2430;51.322;7.864;2023-04-25T14:17:55;5.30;;;1.53;;
4831;SDS011;2430;51.322;7.864;2023-04-25T14:20:21;2.87;;;1.53;;
4831;SDS011;2430;51.322;7.864;2023-04-25T14:22:50;2.83;;;1.90;;
4831;SDS011;2430;51.322;7.864;2023-04-25T14:25:17;3.50;;;2.10;;
4831;SDS011;2430;51.322;7.864;2023-04-25T14:27:43;3.43;;;1.37;;
4831;SDS011;2430;51.322;7.864;2023-04-25T14:30:14;2.13;;;1.20;;
4831;SDS011;2430;51.322;7.864;2023-04-25T14:32:41;2.33;;;1.37;;
4831;SDS011;2430;51.322;7.864;2023-04-25T14:35:08;2.77;;;1.50;;
4831;SDS011;2430;51.322;7.864;2023-04-25T14:37:35;1.60;;;1.10;;
4831;SDS011;2430;51.322;7.864;2023-04-25T14:40:03;5.97;;;1.27;;
4831;SDS011;2430;51.322;7.864;2023-04-25T14:42:30;3.00;;;1.33;;
4831;SDS011;2430;51.322;7.864;2023-04-25T14:44:58;3.63;;;1.67;;
4831;SDS011;2430;51.322;7.864;2023-04-25T14:47:24;4.37;;;1.63;;
4831;SDS011;2430;51.322;7.864;2023-04-25T14:49:51;2.00;;;1.37;;
4831;SDS011;2430;51.322;7.864;2023-04-25T14:52:19;4.03;;;1.53;;
4831;SDS011;2430;51.322;7.864;2023-04-25T14:54:45;1.43;;;1.23;;
4831;SDS011;2430;51.322;7.864;2023-04-25T14:57:13;6.40;;;1.53;;
4831;SDS011;2430;51.322;7.864;2023-04-25T14:59:40;4.00;;;1.40;;
4831;SDS011;2430;51.322;7.864;2023-04-25T15:02:06;3.57;;;1.50;;
4831;SDS011;2430;51.322;7.864;2023-04-25T15:04:33;3.17;;;1.57;;
4831;SDS011;2430;51.322;7.864;2023-04-25T15:06:59;4.00;;;1.40;;
4831;SDS011;2430;51.322;7.864;2023-04-25T15:09:26;2.20;;;1.13;;